Time;durP1;ratioP1;P1;durP2;ratioP2;P2;SDS_P1;SDS_P2;PMS_P1;PMS_P2;Temp;Humidity;BMP_temperature;BMP_pressure;BME280_temperature;BME280_humidity;BME280_pressure;Samples;Min_cycle;Max_cycle;Signal;HPM_P1;HPM_P2
2023/05/23 00:00:44;;;;;;;15.25;3.45;;;11.70;99.90;;;;;;5049756;28;20382;-72
2023/05/23 00:03:10;;;;;;;16.65;3.63;;;11.60;99.90;;;;;;5050255;28;20051;-74
2023/05/23 00:05:35;;;;;;;9.27;3.30;;;11.50;99.90;;;;;;5050148;28;20024;-72
2023/05/23 00:08:01;;;;;;;14.90;3.78;;;11.50;99.90;;;;;;5049375;28;20035;-72
2023/05/23 00:10:27;;;;;;;12.32;3.58;;;11.40;99.90;;;;;;5049973;28;20112;-71
2023/05/23 00:12:53;;;;;;;16.63;3.90;;;11.40;99.90;;;;;;5049817;28;20025;-72
2023/05/23 00:15:18;;;;;;;14.45;3.85;;;11.30;99.90;;;;;;5050457;28;20071;-72
2023/05/23 00:17:45;;;;;;;15.45;4.18;;;11.20;99.90;;;;;;5050594;28;20025;-71
2023/05/23 00:20:12;;;;;;;13.27;3.63;;;11.10;99.90;;;;;;5048475;28;20044;-75
2023/05/23 00:22:41;;;;;;;12.15;3.35;;;11.10;99.90;;;;;;5050698;28;20484;-72
2023/05/23 00:25:08;;;;;;;14.07;4.82;;;11.00;99.90;;;;;;5050468;28;20141;-71
2023/05/23 00:27:34;;;;;;;15.13;4.25;;;11.00;99.90;;;;;;5050384;28;20392;-73
2023/05/23 00:30:00;;;;;;;11.02;3.83;;;11.00;99.90;;;;;;5048720;28;20033;-72
2023/05/23 00:32:26;;;;;;;11.82;3.17;;;11.10;99.90;;;;;;5049442;28;20031;-72
2023/05/23 00:34:53;;;;;;;15.40;3.58;;;11.00;99.90;;;;;;5050086;28;20028;-72
2023/05/23 00:37:19;;;;;;;13.90;4.90;;;11.00;99.90;;;;;;5049517;28;20076;-72
2023/05/23 00:39:45;;;;;;;10.27;3.88;;;11.00;99.90;;;;;;5050045;28;20056;-72
2023/05/23 00:42:10;;;;;;;10.90;3.78;;;11.00;99.90;;;;;;5049753;28;20068;-73
2023/05/23 00:44:36;;;;;;;17.33;4.18;;;11.00;99.90;;;;;;5049179;28;20036;-71
2023/05/23 00:47:02;;;;;;;12.10;3.88;;;11.00;99.90;;;;;;5050248;28;20100;-71
2023/05/23 00:49:29;;;;;;;14.02;3.85;;;11.10;99.90;;;;;;5049624;28;20037;-71
2023/05/23 00:51:54;;;;;;;10.52;3.88;;;11.00;99.90;;;;;;5050122;28;20036;-72
2023/05/23 00:54:26;;;;;;;14.65;4.22;;;11.00;99.90;;;;;;5049619;28;20330;-72
2023/05/23 00:56:52;;;;;;;11.77;3.70;;;10.90;99.90;;;;;;5050149;28;20025;-72
2023/05/23 00:59:20;;;;;;;14.07;4.53;;;11.00;99.90;;;;;;5049575;28;20103;-72
2023/05/23 01:01:48;;;;;;;13.95;4.53;;;11.00;99.90;;;;;;5050273;28;20082;-72
2023/05/23 01:04:15;;;;;;;16.08;4.30;;;11.00;99.90;;;;;;5049499;28;20104;-74
2023/05/23 01:06:45;;;;;;;13.73;4.50;;;11.10;99.90;;;;;;5049911;28;20029;-72
2023/05/23 01:09:17;;;;;;;14.88;4.38;;;11.10;99.90;;;;;;5049712;28;20386;-72
2023/05/23 01:12:07;;;;;;;10.32;3.45;;;11.10;99.90;;;;;;5051953;28;20021;-72
2023/05/23 01:14:50;;;;;;;14.77;4.68;;;11.00;99.90;;;;;;5053383;28;20122;-72
2023/05/23 01:17:58;;;;;;;11.68;4.57;;;10.90;99.90;;;;;;5053224;28;20029;-74
2023/05/23 01:20:40;;;;;;;9.13;3.53;;;10.80;99.90;;;;;;5032208;28;20049;-72
2023/05/23 01:23:13;;;;;;;16.63;4.28;;;10.80;99.90;;;;;;5053633;28;20112;-72
2023/05/23 01:25:58;;;;;;;;;;;10.70;99.90;;;;;;5053247;28;20060;-72
2023/05/23 01:28:30;;;;;;;14.95;3.97;;;10.70;99.90;;;;;;5052743;28;19963;-72
2023/05/23 01:30:58;;;;;;;16.80;3.83;;;10.60;99.90;;;;;;5051767;28;20389;-72
2023/05/23 01:33:24;;;;;;;13.95;3.80;;;10.60;99.90;;;;;;5052742;28;20037;-72
2023/05/23 01:35:50;;;;;;;11.38;4.53;;;10.60;99.90;;;;;;5053128;28;20113;-72
2023/05/23 01:38:16;;;;;;;12.30;3.85;;;10.60;99.90;;;;;;5052953;28;20459;-73
2023/05/23 01:40:42;;;;;;;15.30;4.10;;;10.50;99.90;;;;;;5053013;28;20035;-72
2023/05/23 01:43:08;;;;;;;14.38;4.10;;;10.50;99.90;;;;;;5051534;28;20051;-72
2023/05/23 01:45:34;;;;;;;11.85;3.75;;;10.60;99.90;;;;;;5052087;28;20429;-72
2023/05/23 01:48:01;;;;;;;11.02;4.43;;;10.50;99.90;;;;;;5053293;28;20515;-72
2023/05/23 01:50:27;;;;;;;9.02;3.97;;;10.50;99.90;;;;;;5052690;28;20082;-72
2023/05/23 01:52:55;;;;;;;18.50;4.47;;;10.40;99.90;;;;;;5052964;28;20021;-71
2023/05/23 01:55:23;;;;;;;14.73;4.35;;;10.40;99.90;;;;;;5051981;28;20116;-71
2023/05/23 01:57:54;;;;;;;12.25;3.47;;;10.30;99.90;;;;;;5052384;28;20109;-72
2023/05/23 02:00:20;;;;;;;14.38;4.38;;;10.30;99.90;;;;;;5051815;28;20037;-71
2023/05/23 02:02:46;;;;;;;14.80;4.53;;;10.20;99.90;;;;;;5052537;28;20427;-71
2023/05/23 02:05:12;;;;;;;13.70;4.40;;;10.30;99.90;;;;;;5052249;28;20484;-71
2023/05/23 02:07:38;;;;;;;13.63;4.00;;;10.20;99.90;;;;;;5051682;28;20132;-71
2023/05/23 02:10:07;;;;;;;11.68;3.90;;;10.20;99.90;;;;;;5052256;28;20041;-71
2023/05/23 02:12:33;;;;;;;11.80;3.67;;;10.30;99.90;;;;;;5052027;28;20056;-71
2023/05/23 02:14:58;;;;;;;15.45;3.95;;;10.30;99.90;;;;;;5052481;28;20414;-72
2023/05/23 02:17:24;;;;;;;15.13;4.18;;;10.30;99.90;;;;;;5051563;28;20124;-72
2023/05/23 02:19:50;;;;;;;15.73;4.10;;;10.30;99.90;;;;;;5052248;28;20052;-73
2023/05/23 02:22:15;;;;;;;13.60;3.90;;;10.30;99.90;;;;;;5049959;28;20092;-72
2023/05/23 02:24:41;;;;;;;15.35;4.43;;;10.20;99.90;;;;;;5051275;28;20381;-72
2023/05/23 02:27:07;;;;;;;14.15;3.95;;;10.20;99.90;;;;;;5052067;28;20025;-72
2023/05/23 02:29:33;;;;;;;16.52;4.40;;;10.10;99.90;;;;;;5051518;28;20351;-72
2023/05/23 02:31:59;;;;;;;13.15;4.22;;;10.10;99.90;;;;;;5051919;28;20082;-72
2023/05/23 02:34:25;;;;;;;15.32;3.70;;;10.20;99.90;;;;;;5051418;28;20040;-72
2023/05/23 02:36:51;;;;;;;19.40;5.10;;;10.30;99.90;;;;;;5051951;28;20028;-72
2023/05/23 02:39:16;;;;;;;20.08;4.22;;;10.30;99.90;;;;;;5050486;28;20048;-71
2023/05/23 02:41:42;;;;;;;12.02;4.22;;;10.30;99.90;;;;;;5051130;28;20166;-72
2023/05/23 02:44:08;;;;;;;11.15;4.43;;;10.40;99.90;;;;;;5051549;28;20021;-72
2023/05/23 02:46:33;;;;;;;15.35;4.07;;;10.40;99.90;;;;;;5049403;28;20436;-71
2023/05/23 02:48:59;;;;;;;14.90;4.20;;;10.50;99.90;;;;;;5051777;28;20021;-72
2023/05/23 02:51:25;;;;;;;14.50;4.32;;;10.60;99.90;;;;;;5051004;28;20108;-72
2023/05/23 02:53:51;;;;;;;13.35;4.32;;;10.60;99.90;;;;;;5051682;28;20032;-72
2023/05/23 02:56:17;;;;;;;12.57;3.70;;;10.70;99.90;;;;;;5051669;28;20091;-71
2023/05/23 02:58:43;;;;;;;16.77;4.88;;;10.60;99.90;;;;;;5050933;28;20186;-71
2023/05/23 03:01:09;;;;;;;11.23;3.58;;;10.60;99.90;;;;;;5051374;28;20496;-71
2023/05/23 03:03:35;;;;;;;12.60;4.07;;;10.50;99.90;;;;;;5051174;28;20040;-71
2023/05/23 03:06:05;;;;;;;14.20;3.80;;;10.50;99.90;;;;;;5051377;28;20036;-72
2023/05/23 03:08:31;;;;;;;13.82;4.40;;;10.50;99.90;;;;;;5050879;28;20021;-72
2023/05/23 03:10:56;;;;;;;13.10;4.07;;;10.40;99.90;;;;;;5051291;28;20524;-72
2023/05/23 03:13:22;;;;;;;15.38;4.63;;;10.40;99.90;;;;;;5051425;28;20047;-74
2023/05/23 03:15:48;;;;;;;18.73;4.30;;;10.40;99.90;;;;;;5050322;28;20107;-71
2023/05/23 03:18:15;;;;;;;12.63;4.22;;;10.40;99.90;;;;;;5049695;28;20029;-71
2023/05/23 03:20:41;;;;;;;17.73;4.50;;;10.40;99.90;;;;;;5050455;28;20041;-71
2023/05/23 03:23:06;;;;;;;12.77;3.95;;;10.40;99.90;;;;;;5051040;28;20335;-71
2023/05/23 03:25:32;;;;;;;12.38;3.90;;;10.30;99.90;;;;;;5049972;28;20060;-71
2023/05/23 03:27:58;;;;;;;16.65;4.43;;;10.30;99.90;;;;;;5051295;28;20379;-71
2023/05/23 03:30:24;;;;;;;14.38;4.32;;;10.30;99.90;;;;;;5050608;28;20466;-73
2023/05/23 03:32:49;;;;;;;15.60;4.20;;;10.30;99.90;;;;;;5050835;28;20021;-71
2023/05/23 03:35:15;;;;;;;10.07;3.75;;;10.40;99.90;;;;;;5050761;28;20036;-72
2023/05/23 03:37:41;;;;;;;16.42;4.28;;;10.50;99.90;;;;;;5048915;28;20612;-72
2023/05/23 03:40:08;;;;;;;12.95;4.10;;;10.40;99.90;;;;;;5050899;28;20489;-72
2023/05/23 03:42:35;;;;;;;15.95;4.40;;;10.40;99.90;;;;;;5050307;28;20151;-72
2023/05/23 03:45:00;;;;;;;11.85;3.70;;;10.30;99.90;;;;;;5050788;28;20378;-72
2023/05/23 03:47:26;;;;;;;14.68;4.47;;;10.30;99.90;;;;;;5049995;28;20021;-73
2023/05/23 03:49:52;;;;;;;16.48;4.50;;;10.30;99.90;;;;;;5050734;28;20126;-72
2023/05/23 03:52:18;;;;;;;14.80;3.90;;;10.30;99.90;;;;;;5050852;28;20033;-72
2023/05/23 03:54:43;;;;;;;16.08;4.25;;;10.30;99.90;;;;;;5049930;28;20025;-72
2023/05/23 03:57:09;;;;;;;16.23;4.35;;;10.30;99.90;;;;;;5050231;28;20100;-72
2023/05/23 03:59:35;;;;;;;17.17;4.15;;;10.30;99.90;;;;;;5049905;28;20158;-71
2023/05/23 04:02:00;;;;;;;10.43;3.80;;;10.40;99.90;;;;;;5050459;28;20056;-72
2023/05/23 04:04:29;;;;;;;15.75;4.53;;;10.40;99.90;;;;;;5049926;28;20029;-74
2023/05/23 04:06:56;;;;;;;15.55;4.20;;;10.40;99.90;;;;;;5050391;28;20469;-72
2023/05/23 04:09:22;;;;;;;13.63;4.35;;;10.30;99.90;;;;;;5050350;28;20116;-72
2023/05/23 04:11:48;;;;;;;13.63;4.00;;;10.40;99.90;;;;;;5049878;28;20123;-72
2023/05/23 04:14:14;;;;;;;15.57;3.65;;;10.40;99.90;;;;;;5050564;28;20102;-71
2023/05/23 04:16:41;;;;;;;12.90;3.80;;;10.50;99.90;;;;;;5049727;28;20025;-72
2023/05/23 04:19:07;;;;;;;14.15;4.43;;;10.50;99.90;;;;;;5048966;28;20324;-71
2023/05/23 04:21:33;;;;;;;16.67;4.50;;;10.50;99.90;;;;;;5049729;28;20105;-72
2023/05/23 04:24:00;;;;;;;16.30;4.63;;;10.50;99.90;;;;;;5050313;28;20028;-72
2023/05/23 04:26:25;;;;;;;15.45;4.03;;;10.50;99.90;;;;;;5050129;28;20049;-74
2023/05/23 04:28:53;;;;;;;17.45;4.53;;;10.50;99.90;;;;;;5048526;28;20021;-72
2023/05/23 04:31:21;;;;;;;15.65;4.05;;;10.50;99.90;;;;;;5050318;28;20065;-72
2023/05/23 04:33:48;;;;;;;15.95;4.00;;;10.50;99.90;;;;;;5049594;28;20121;-72
2023/05/23 04:36:13;;;;;;;16.15;4.20;;;10.50;99.90;;;;;;5049901;28;20036;-72
2023/05/23 04:38:39;;;;;;;15.02;3.65;;;10.60;99.90;;;;;;5049598;28;20025;-72
2023/05/23 04:41:08;;;;;;;21.40;4.18;;;10.60;99.90;;;;;;5050481;28;20103;-71
2023/05/23 04:43:36;;;;;;;15.48;3.97;;;10.60;99.90;;;;;;5049575;28;20041;-72
2023/05/23 04:46:02;;;;;;;14.80;3.88;;;10.60;99.90;;;;;;5051047;28;20355;-72
2023/05/23 04:48:28;;;;;;;11.13;3.60;;;10.60;99.90;;;;;;5052081;28;20049;-74
2023/05/23 04:50:55;;;;;;;15.82;3.97;;;10.70;99.90;;;;;;5053788;28;20036;-72
2023/05/23 04:53:21;;;;;;;13.52;4.05;;;10.80;99.90;;;;;;5053718;28;20029;-72
2023/05/23 04:55:47;;;;;;;15.05;4.88;;;10.80;99.90;;;;;;5053207;28;20060;-72
2023/05/23 04:58:13;;;;;;;15.07;4.28;;;10.80;99.90;;;;;;5053619;28;20021;-72
2023/05/23 05:00:39;;;;;;;13.50;4.22;;;10.80;99.90;;;;;;5053197;28;20039;-72
2023/05/23 05:03:05;;;;;;;14.10;4.38;;;10.80;99.90;;;;;;5053826;28;20491;-72
2023/05/23 05:05:30;;;;;;;13.80;4.25;;;10.80;99.90;;;;;;5052057;28;20037;-74
2023/05/23 05:07:56;;;;;;;17.20;4.72;;;10.80;99.90;;;;;;5053674;28;20025;-72
2023/05/23 05:10:22;;;;;;;18.10;4.63;;;10.80;99.90;;;;;;5052371;28;20044;-72
2023/05/23 05:12:51;;;;;;;14.50;4.20;;;10.70;99.90;;;;;;5054140;28;20021;-72
2023/05/23 05:15:18;;;;;;;18.85;4.95;;;10.70;99.90;;;;;;5053721;28;20385;-72
2023/05/23 05:17:44;;;;;;;18.65;4.30;;;10.80;99.90;;;;;;5053032;28;20114;-72
2023/05/23 05:20:10;;;;;;;15.60;4.55;;;10.80;99.90;;;;;;5053854;28;20158;-71
2023/05/23 05:22:39;;;;;;;13.88;4.20;;;10.80;99.90;;;;;;5052654;28;20098;-72
2023/05/23 05:25:06;;;;;;;14.15;4.78;;;10.80;99.90;;;;;;5053213;28;20060;-72
2023/05/23 05:27:32;;;;;;;17.17;4.25;;;10.80;99.90;;;;;;5052358;28;20032;-74
2023/05/23 05:30:03;;;;;;;19.98;4.70;;;10.80;99.90;;;;;;5053002;28;20025;-72
2023/05/23 05:32:32;;;;;;;19.73;4.47;;;10.90;99.90;;;;;;5053024;28;20029;-72
2023/05/23 05:35:02;;;;;;;18.50;4.40;;;10.90;99.90;;;;;;5052972;28;20025;-72
2023/05/23 05:37:28;;;;;;;12.95;3.90;;;11.00;99.90;;;;;;5051670;28;20032;-72
2023/05/23 05:39:54;;;;;;;20.48;5.30;;;10.90;99.90;;;;;;5052360;28;20064;-72
2023/05/23 05:42:21;;;;;;;12.85;4.28;;;11.00;99.90;;;;;;5052892;28;20025;-72
2023/05/23 05:44:47;;;;;;;18.30;4.43;;;11.00;99.90;;;;;;5052157;28;20423;-72
2023/05/23 05:47:13;;;;;;;14.50;4.30;;;11.00;99.90;;;;;;5053192;28;20108;-72
2023/05/23 05:49:39;;;;;;;18.20;4.13;;;11.00;99.90;;;;;;5051926;28;20417;-73
2023/05/23 05:52:08;;;;;;;18.63;4.65;;;11.00;99.90;;;;;;5052570;28;20110;-73
2023/05/23 05:54:33;;;;;;;16.88;4.57;;;11.10;99.90;;;;;;5052247;28;20036;-74
2023/05/23 05:56:59;;;;;;;15.40;4.28;;;11.10;99.90;;;;;;5052541;28;20384;-72
2023/05/23 05:59:25;;;;;;;12.75;3.97;;;11.20;99.90;;;;;;5051255;28;20063;-72
2023/05/23 06:01:52;;;;;;;16.17;3.88;;;11.20;99.90;;;;;;5051955;28;20029;-72
2023/05/23 06:04:18;;;;;;;15.73;4.65;;;11.30;99.90;;;;;;5052554;28;20021;-72
2023/05/23 06:06:43;;;;;;;15.05;4.13;;;11.20;99.90;;;;;;5051939;28;20086;-72
2023/05/23 06:09:09;;;;;;;18.02;4.10;;;11.20;99.90;;;;;;5052213;28;20033;-72
2023/05/23 06:11:39;;;;;;;12.73;4.13;;;11.20;99.90;;;;;;5051833;28;20025;-74
2023/05/23 06:14:06;;;;;;;14.27;4.40;;;11.30;99.90;;;;;;5052106;28;20043;-72
2023/05/23 06:16:32;;;;;;;11.90;4.22;;;11.40;99.90;;;;;;5052282;28;20029;-71
2023/05/23 06:18:58;;;;;;;15.68;4.20;;;11.50;99.90;;;;;;5051221;28;20029;-72
2023/05/23 06:21:23;;;;;;;20.55;4.68;;;11.50;99.90;;;;;;5052108;28;20028;-72
2023/05/23 06:23:49;;;;;;;18.45;4.53;;;11.60;99.90;;;;;;5051308;28;20032;-72
2023/05/23 06:26:15;;;;;;;13.00;4.35;;;11.60;99.90;;;;;;5051674;28;20053;-72
2023/05/23 06:28:41;;;;;;;14.70;4.20;;;11.60;99.90;;;;;;5051412;28;20025;-72
2023/05/23 06:31:09;;;;;;;18.45;4.50;;;11.70;99.90;;;;;;5051578;28;20048;-72
2023/05/23 06:33:35;;;;;;;18.88;4.78;;;11.70;99.90;;;;;;5051612;28;20477;-76
2023/05/23 06:36:01;;;;;;;15.25;4.75;;;11.70;99.90;;;;;;5051704;28;20025;-72
2023/05/23 06:38:30;;;;;;;19.75;4.57;;;11.80;99.90;;;;;;5050287;28;20035;-73
2023/05/23 06:40:56;;;;;;;17.15;4.45;;;11.80;99.90;;;;;;5051186;28;20021;-71
2023/05/23 06:43:21;;;;;;;13.32;3.78;;;11.90;99.90;;;;;;5051718;28;20413;-71
2023/05/23 06:45:47;;;;;;;15.45;4.28;;;11.90;99.90;;;;;;5051170;28;20086;-71
2023/05/23 06:48:13;;;;;;;18.80;4.60;;;12.00;99.90;;;;;;5050033;28;20063;-70
2023/05/23 06:50:40;;;;;;;16.10;4.13;;;12.00;99.90;;;;;;5050550;28;20036;-71
2023/05/23 06:53:05;;;;;;;14.13;4.93;;;12.10;99.90;;;;;;5051404;28;20066;-70
2023/05/23 06:55:32;;;;;;;18.80;3.95;;;12.10;99.90;;;;;;5049898;28;20378;-70
2023/05/23 06:57:59;;;;;;;17.35;4.50;;;12.10;99.90;;;;;;5050880;28;20025;-71
2023/05/23 07:00:25;;;;;;;16.88;4.22;;;12.10;99.90;;;;;;5050587;28;20473;-71
2023/05/23 07:02:51;;;;;;;12.20;3.90;;;12.10;99.90;;;;;;5050734;28;20029;-71
2023/05/23 07:05:17;;;;;;;13.65;4.20;;;12.20;99.90;;;;;;5050968;28;20033;-71
2023/05/23 07:07:43;;;;;;;17.35;4.43;;;12.20;99.90;;;;;;5050595;28;20104;-71
2023/05/23 07:10:09;;;;;;;20.35;4.05;;;12.20;99.90;;;;;;5050233;28;20076;-71
2023/05/23 07:12:35;;;;;;;19.98;4.13;;;12.30;99.90;;;;;;5051048;28;20474;-71
2023/05/23 07:15:01;;;;;;;17.00;4.05;;;12.30;99.90;;;;;;5050489;28;20029;-72
2023/05/23 07:17:29;;;;;;;21.98;5.13;;;12.40;99.90;;;;;;5050236;28;20048;-71
2023/05/23 07:19:55;;;;;;;14.90;4.18;;;12.50;99.90;;;;;;5049937;28;20041;-72
2023/05/23 07:22:21;;;;;;;15.18;4.50;;;12.50;99.90;;;;;;5051039;28;20075;-71
2023/05/23 07:24:46;;;;;;;20.58;4.55;;;12.70;99.90;;;;;;5049929;28;20454;-72
2023/05/23 07:27:12;;;;;;;18.40;4.72;;;12.70;99.90;;;;;;5051296;28;20047;-72
2023/05/23 07:29:38;;;;;;;15.50;5.18;;;12.70;99.90;;;;;;5050998;28;20436;-74
2023/05/23 07:32:04;;;;;;;15.45;4.60;;;12.90;99.90;;;;;;5050488;28;20029;-72
2023/05/23 07:34:30;;;;;;;19.25;4.32;;;13.00;99.90;;;;;;5050776;28;20075;-72
2023/05/23 07:36:56;;;;;;;13.63;4.18;;;13.00;99.90;;;;;;5049934;28;20025;-72
2023/05/23 07:39:23;;;;;;;15.98;4.32;;;13.10;99.90;;;;;;5050428;28;20179;-72
2023/05/23 07:41:49;;;;;;;16.83;4.60;;;13.10;99.90;;;;;;5050139;28;20036;-72
2023/05/23 07:44:17;;;;;;;14.45;4.28;;;13.20;99.90;;;;;;5050226;28;20092;-72
2023/05/23 07:46:43;;;;;;;15.32;4.32;;;13.20;99.90;;;;;;5050129;28;20021;-72
2023/05/23 07:49:08;;;;;;;18.10;4.25;;;13.20;99.90;;;;;;5049727;28;20047;-72
2023/05/23 07:51:34;;;;;;;17.15;4.03;;;13.30;99.90;;;;;;5049418;28;20025;-72
2023/05/23 07:54:00;;;;;;;23.80;4.60;;;13.30;99.90;;;;;;5049791;28;20033;-71
2023/05/23 07:56:26;;;;;;;13.05;4.22;;;13.50;99.90;;;;;;5049972;28;20036;-71
2023/05/23 07:58:52;;;;;;;19.48;4.68;;;13.70;99.90;;;;;;5049917;28;20055;-71
2023/05/23 08:01:18;;;;;;;16.63;4.32;;;13.70;99.90;;;;;;5050029;28;20475;-71
2023/05/23 08:03:43;;;;;;;13.65;4.07;;;13.80;99.90;;;;;;5050036;28;20479;-72
2023/05/23 08:06:09;;;;;;;13.95;3.90;;;14.10;99.90;;;;;;5049816;28;20115;-71
2023/05/23 08:08:36;;;;;;;18.60;4.50;;;14.40;99.90;;;;;;5049001;28;20450;-73
2023/05/23 08:11:02;;;;;;;22.13;4.65;;;14.60;99.90;;;;;;5049632;28;20028;-72
2023/05/23 08:13:29;;;;;;;14.88;3.40;;;14.60;99.90;;;;;;5050113;28;20040;-72
2023/05/23 08:15:55;;;;;;;14.15;3.92;;;14.70;99.90;;;;;;5049114;28;20112;-73
2023/05/23 08:18:20;;;;;;;15.27;4.00;;;14.90;99.90;;;;;;5049897;28;20175;-72
2023/05/23 08:20:46;;;;;;;17.65;3.90;;;15.10;99.90;;;;;;5049846;28;20036;-73
2023/05/23 08:23:13;;;;;;;14.63;3.55;;;15.30;99.90;;;;;;5054713;28;20029;-73
2023/05/23 08:25:38;;;;;;;16.70;4.40;;;15.40;99.90;;;;;;5054276;28;20057;-72
2023/05/23 08:28:04;;;;;;;16.80;4.22;;;15.40;99.90;;;;;;5053644;28;20047;-72
2023/05/23 08:30:32;;;;;;;15.90;3.42;;;15.40;99.90;;;;;;5054187;28;20163;-73
2023/05/23 08:32:59;;;;;;;15.77;3.75;;;15.40;99.90;;;;;;5052279;28;20177;-73
2023/05/23 08:35:28;;;;;;;15.50;3.75;;;15.30;99.90;;;;;;5054002;28;20104;-73
2023/05/23 08:37:54;;;;;;;12.38;3.80;;;15.20;99.90;;;;;;5053073;28;20032;-73
2023/05/23 08:40:21;;;;;;;14.52;4.13;;;15.30;99.90;;;;;;5053849;28;20037;-73
2023/05/23 08:42:48;;;;;;;15.88;3.72;;;15.20;99.90;;;;;;5053637;28;20039;-73
2023/05/23 08:45:15;;;;;;;14.88;3.78;;;15.30;99.90;;;;;;5053834;28;20486;-73
2023/05/23 08:47:45;;;;;;;17.35;3.95;;;15.50;99.90;;;;;;5054305;28;20526;-73
2023/05/23 08:50:15;;;;;;;17.52;3.95;;;15.50;99.90;;;;;;5054315;28;20048;-73
2023/05/23 08:52:55;;;;;;;13.93;3.75;;;15.30;99.90;;;;;;5054063;28;20025;-72
2023/05/23 08:55:26;;;;;;;15.43;3.83;;;15.20;99.90;;;;;;5054332;28;20522;-72
2023/05/23 08:57:52;;;;;;;12.45;3.53;;;15.20;99.90;;;;;;5053437;28;20438;-72
2023/05/23 09:00:19;;;;;;;13.77;4.00;;;15.20;99.90;;;;;;5053800;28;20037;-71
2023/05/23 09:02:46;;;;;;;23.77;4.78;;;15.30;99.90;;;;;;5053496;28;20057;-73
2023/05/23 09:05:12;;;;;;;15.82;3.47;;;15.40;99.90;;;;;;5053527;28;20031;-72
2023/05/23 09:07:39;;;;;;;17.17;4.65;;;15.40;99.90;;;;;;5053345;28;20116;-72
2023/05/23 09:10:07;;;;;;;16.85;4.63;;;15.50;99.90;;;;;;5052748;28;20040;-71
2023/05/23 09:12:35;;;;;;;13.80;3.42;;;15.40;99.90;;;;;;5053705;28;20517;-72
2023/05/23 09:15:02;;;;;;;14.73;3.95;;;15.70;99.90;;;;;;5052845;28;20171;-71
2023/05/23 09:17:29;;;;;;;13.80;3.97;;;15.90;99.90;;;;;;5053066;28;20411;-72
2023/05/23 09:19:55;;;;;;;12.32;3.72;;;16.00;99.90;;;;;;5052674;28;20033;-72
2023/05/23 09:22:27;;;;;;;19.52;4.30;;;16.00;99.90;;;;;;5053516;28;20096;-71
2023/05/23 09:24:56;;;;;;;11.30;3.47;;;16.00;99.90;;;;;;5052642;28;20036;-72
2023/05/23 09:27:22;;;;;;;19.70;3.50;;;15.90;99.90;;;;;;5053268;28;20124;-72
2023/05/23 09:29:50;;;;;;;9.48;3.72;;;15.90;99.90;;;;;;5052940;28;20144;-74
2023/05/23 09:32:18;;;;;;;15.23;3.58;;;15.80;99.90;;;;;;5052736;28;20029;-72
2023/05/23 09:34:56;;;;;;;10.77;4.03;;;15.80;99.90;;;;;;5053175;28;20036;-72
2023/05/23 09:37:36;;;;;;;11.20;3.40;;;15.90;99.90;;;;;;5053321;28;20078;-72
2023/05/23 09:40:08;;;;;;;10.52;2.97;;;16.00;99.90;;;;;;5052482;28;20048;-72
2023/05/23 09:42:35;;;;;;;12.38;3.80;;;16.10;99.90;;;;;;5053024;28;20037;-72
2023/05/23 09:45:01;;;;;;;17.90;4.00;;;16.30;99.90;;;;;;5052429;28;20055;-72
2023/05/23 09:47:27;;;;;;;12.50;3.80;;;16.00;99.90;;;;;;5051466;28;20361;-71
2023/05/23 09:49:53;;;;;;;16.10;4.30;;;16.20;99.90;;;;;;5052293;28;20033;-72
2023/05/23 09:52:19;;;;;;;12.32;3.33;;;16.20;99.90;;;;;;5052590;28;20473;-72
2023/05/23 09:54:46;;;;;;;15.77;3.75;;;16.40;99.90;;;;;;5052696;28;20036;-72
2023/05/23 09:57:14;;;;;;;13.52;4.05;;;16.40;99.90;;;;;;5050439;28;20402;-72
2023/05/23 09:59:42;;;;;;;12.60;3.58;;;16.50;99.90;;;;;;5052213;28;20366;-71
2023/05/23 10:02:11;;;;;;;18.25;4.38;;;16.40;99.90;;;;;;5051975;28;20112;-72
2023/05/23 10:04:40;;;;;;;10.18;3.85;;;16.40;99.90;;;;;;5052165;28;20534;-71
2023/05/23 10:07:19;;;;;;;13.20;3.60;;;16.50;99.90;;;;;;5051604;28;20029;-72
2023/05/23 10:09:53;;;;;;;12.98;4.07;;;16.60;99.90;;;;;;5052400;28;20048;-72
2023/05/23 10:12:31;;;;;;;13.93;3.83;;;16.70;99.90;;;;;;5052670;28;20029;-72
2023/05/23 10:15:02;;;;;;;11.43;3.67;;;16.80;99.90;;;;;;5051941;28;20470;-72
2023/05/23 10:17:46;;;;;;;10.38;4.05;;;16.80;99.90;;;;;;5052058;28;20028;-72
2023/05/23 10:20:15;;;;;;;16.30;4.22;;;16.90;99.90;;;;;;5051748;28;20025;-71
2023/05/23 10:22:42;;;;;;;12.35;4.05;;;17.00;99.90;;;;;;5051871;28;20025;-72
2023/05/23 10:25:09;;;;;;;12.25;3.63;;;17.10;99.90;;;;;;5051303;28;20052;-72
2023/05/23 10:27:38;;;;;;;11.57;3.60;;;17.10;99.90;;;;;;5052216;28;20033;-72
2023/05/23 10:30:09;;;;;;;12.93;3.38;;;17.10;99.90;;;;;;5051475;28;20048;-72
2023/05/23 10:32:37;;;;;;;13.80;3.88;;;17.00;99.90;;;;;;5051939;28;20033;-71
2023/05/23 10:35:06;;;;;;;15.20;3.55;;;17.10;99.90;;;;;;5051575;28;20017;-72
2023/05/23 10:37:39;;;;;;;13.35;4.03;;;17.10;99.90;;;;;;5051611;28;20513;-72
2023/05/23 10:40:20;;;;;;;13.27;4.55;;;17.00;99.90;;;;;;5051112;28;20044;-72
2023/05/23 10:43:04;;;;;;;10.95;3.22;;;17.00;99.90;;;;;;5051963;28;20193;-72
2023/05/23 10:45:41;;;;;;;12.05;3.17;;;17.10;99.90;;;;;;5051112;28;20488;-71
2023/05/23 10:48:21;;;;;;;9.80;3.65;;;17.10;99.90;;;;;;5050853;28;20048;-72
2023/05/23 10:51:02;;;;;;;14.50;3.63;;;17.20;99.90;;;;;;5051596;28;20037;-72
2023/05/23 10:53:28;;;;;;;15.40;3.63;;;17.20;99.90;;;;;;5051481;28;20544;-72
2023/05/23 10:55:55;;;;;;;10.18;3.83;;;17.20;99.90;;;;;;5051090;28;20025;-74
2023/05/23 10:58:21;;;;;;;10.02;3.40;;;17.30;99.90;;;;;;5051444;28;20025;-72
2023/05/23 11:01:01;;;;;;;11.73;3.08;;;17.30;99.90;;;;;;5051506;28;20112;-71
2023/05/23 11:03:33;;;;;;;12.25;3.20;;;17.20;99.90;;;;;;5051599;28;20053;-72
2023/05/23 11:06:00;;;;;;;13.07;3.63;;;17.30;99.90;;;;;;5050948;28;20029;-73
2023/05/23 11:08:28;;;;;;;12.70;3.78;;;17.30;99.90;;;;;;5050927;28;20398;-73
2023/05/23 11:11:02;;;;;;;14.05;3.83;;;17.50;99.90;;;;;;5050914;28;20102;-75
2023/05/23 11:13:53;;;;;;;10.90;3.67;;;17.50;99.90;;;;;;5051244;28;20116;-72
2023/05/23 11:16:39;;;;;;;16.88;4.13;;;17.50;99.90;;;;;;5050761;28;20032;-72
2023/05/23 11:19:21;;;;;;;8.30;3.20;;;17.60;99.90;;;;;;5050197;28;20028;-72
2023/05/23 11:21:53;;;;;;;9.98;3.17;;;17.70;99.90;;;;;;5050921;28;20021;-73
2023/05/23 11:24:20;;;;;;;12.82;3.83;;;17.60;99.90;;;;;;5050976;28;20551;-72
2023/05/23 11:26:59;;;;;;;10.35;3.50;;;17.60;99.90;;;;;;5050908;28;20072;-72
2023/05/23 11:29:29;;;;;;;8.23;3.08;;;17.60;99.90;;;;;;5050407;28;20056;-72
2023/05/23 11:31:56;;;;;;;9.20;3.30;;;17.70;99.90;;;;;;5050551;28;20434;-75
2023/05/23 11:34:24;;;;;;;15.40;4.00;;;17.90;99.90;;;;;;5050834;28;20024;-73
2023/05/23 11:36:56;;;;;;;11.65;3.95;;;17.90;99.90;;;;;;5050935;28;20031;-73
2023/05/23 11:39:22;;;;;;;8.38;3.35;;;17.80;99.90;;;;;;5050831;28;20029;-72
2023/05/23 11:42:06;;;;;;;10.98;3.65;;;17.90;99.90;;;;;;5050737;28;20029;-73
2023/05/23 11:44:31;;;;;;;9.32;3.10;;;17.90;99.90;;;;;;5050810;28;20110;-72
2023/05/23 11:47:05;;;;;;;9.82;3.95;;;17.80;99.90;;;;;;5050545;28;20430;-75
2023/05/23 11:49:33;;;;;;;13.75;4.15;;;17.80;99.90;;;;;;5050446;28;20029;-72
2023/05/23 11:52:01;;;;;;;11.35;3.80;;;17.90;99.90;;;;;;5049703;28;20478;-73
2023/05/23 11:54:27;;;;;;;7.88;3.53;;;18.00;99.90;;;;;;5049959;28;20025;-72
2023/05/23 11:56:54;;;;;;;12.00;3.42;;;18.00;99.90;;;;;;5050304;28;20032;-73
2023/05/23 11:59:27;;;;;;;10.90;3.88;;;18.00;99.90;;;;;;5049418;28;20503;-73
2023/05/23 12:01:54;;;;;;;13.15;3.78;;;18.00;99.90;;;;;;5049950;28;20033;-72
2023/05/23 12:04:19;;;;;;;10.85;3.38;;;18.10;99.90;;;;;;5049659;28;20032;-72
2023/05/23 12:06:48;;;;;;;13.63;3.58;;;18.10;99.90;;;;;;5050108;28;20370;-72
2023/05/23 12:09:15;;;;;;;10.80;3.42;;;18.10;99.90;;;;;;5049530;28;20029;-73
2023/05/23 12:11:42;;;;;;;9.20;3.47;;;18.00;99.90;;;;;;5050142;28;20481;-72
2023/05/23 12:14:08;;;;;;;14.13;3.28;;;18.00;99.90;;;;;;5031839;28;20045;-72
2023/05/23 12:16:35;;;;;;;14.20;3.78;;;18.10;99.90;;;;;;5048990;28;20079;-72
2023/05/23 12:19:03;;;;;;;10.43;3.10;;;17.90;99.90;;;;;;5049606;28;20497;-74
2023/05/23 12:21:45;;;;;;;10.15;3.45;;;17.80;99.90;;;;;;5050109;28;20033;-73
2023/05/23 12:24:19;;;;;;;13.45;3.53;;;17.80;99.90;;;;;;5048967;28;20108;-72
2023/05/23 12:26:48;;;;;;;17.92;3.78;;;18.00;99.90;;;;;;5050166;28;20053;-73
2023/05/23 12:29:15;;;;;;;10.10;3.35;;;18.00;99.90;;;;;;5049290;28;20130;-72
2023/05/23 12:31:41;;;;;;;9.88;2.92;;;18.00;99.90;;;;;;5049795;28;20056;-72
2023/05/23 12:34:06;;;;;;;11.90;3.80;;;18.10;99.90;;;;;;5049690;28;20411;-73
2023/05/23 12:36:33;;;;;;;9.82;3.08;;;18.20;99.90;;;;;;5048858;28;20102;-72
2023/05/23 12:39:04;;;;;;;11.00;3.55;;;18.20;99.90;;;;;;5049992;28;20025;-74
2023/05/23 12:41:32;;;;;;;13.38;3.70;;;18.20;99.90;;;;;;5050168;28;20057;-72